Bishop's Stortford, United Kingdom
Current Conditions -  °F | °C
As of 5:20 AM on Thursday 23 Oct 2014 (Local Time) from EGSS Reporting Station
Overcast Overcast  
Wind Chill: 52°   Ceiling: 2500
Heat Index: 52°   Visibility: 6mi
Dew Point: 46°   Wind: 9mph
Humidity: 82%   Direction: 230°SW
Pressure: 30.15"   Gusts: NA
Location:  51.87°N, 0.16°E
Report Text: EGSS 230420Z 23008KT 9999 BKN025 OVC031 11/08 Q1021
Loading
Personal Weather Stations






























Interactive Weather Map
Tropical Storm Tracking
New forecast layout! Learn more

10-Day Weather Forecast

Advertisements
Track Severe Weather on mobile